createdAt,value
2018-12-11T00:02:01.935Z,99516.92
2018-12-11T00:04:32.903Z,99521.80
2018-12-11T00:07:04.051Z,99517.67
2018-12-11T00:09:37.379Z,99525.92
2018-12-11T00:12:11.324Z,99525.56
2018-12-11T00:14:49.597Z,99527.14
2018-12-11T00:17:24.348Z,99524.57
2018-12-11T00:19:56.443Z,99525.88
2018-12-11T00:22:27.521Z,99516.32
2018-12-11T00:25:02.532Z,99511.48
2018-12-11T00:27:35.026Z,99511.23
2018-12-11T00:30:06.111Z,99508.61
2018-12-11T00:32:37.236Z,99507.36
2018-12-11T00:35:08.800Z,99513.80
2018-12-11T00:37:41.369Z,99516.52
2018-12-11T00:40:12.770Z,99516.97
2018-12-11T00:42:47.017Z,99494.62
2018-12-11T00:45:19.638Z,99503.44
2018-12-11T00:47:52.155Z,99507.14
2018-12-11T00:50:22.495Z,99512.73
2018-12-11T00:52:53.309Z,99507.61
2018-12-11T00:55:25.319Z,99504.23
2018-12-11T00:57:56.013Z,99506.30
2018-12-11T01:00:28.095Z,99514.95
2018-12-11T01:03:02.562Z,99515.71
2018-12-11T01:05:35.326Z,99516.97
2018-12-11T01:08:08.152Z,99513.80
2018-12-11T01:10:40.349Z,99520.34
2018-12-11T01:13:13.027Z,99517.12
2018-12-11T01:15:44.913Z,99522.50
2018-12-11T01:18:16.805Z,99525.88
2018-12-11T01:20:47.884Z,99525.12
2018-12-11T01:23:20.096Z,99530.91
2018-12-11T01:25:51.200Z,99536.82
2018-12-11T01:28:24.623Z,99532.00
2018-12-11T01:30:56.432Z,99534.76
2018-12-11T01:33:27.878Z,99536.02
2018-12-11T01:36:00.887Z,99520.37
2018-12-11T01:38:32.492Z,99537.88
2018-12-11T01:41:03.998Z,99531.52
2018-12-11T01:43:35.760Z,99537.61
2018-12-11T01:46:07.287Z,99539.81
2018-12-11T01:48:38.732Z,99541.58
2018-12-11T01:51:10.151Z,99533.28
2018-12-11T01:53:41.134Z,99533.83
2018-12-11T01:56:12.184Z,99520.80
2018-12-11T01:58:43.222Z,99527.30
2018-12-11T02:01:15.282Z,99520.36
2018-12-11T02:03:48.050Z,99531.27
2018-12-11T02:06:20.126Z,99532.08
2018-12-11T02:08:51.930Z,99538.25
2018-12-11T02:11:22.968Z,99532.12
2018-12-11T02:13:52.620Z,99519.55
2018-12-11T02:16:23.135Z,99536.00
2018-12-11T02:18:52.838Z,99529.86
2018-12-11T02:21:25.608Z,99530.53
2018-12-11T02:23:56.309Z,99534.80
2018-12-11T02:26:28.210Z,99536.22
2018-12-11T02:29:02.302Z,99531.08
2018-12-11T02:31:31.946Z,99538.88
2018-12-11T02:34:07.826Z,99544.64
2018-12-11T02:36:39.967Z,99545.45
2018-12-11T02:39:10.928Z,99544.52
2018-12-11T02:41:41.152Z,99543.61
2018-12-11T02:44:11.946Z,99544.91
2018-12-11T02:46:41.262Z,99554.38
2018-12-11T02:49:09.738Z,99563.53
2018-12-11T02:51:38.502Z,99558.16
2018-12-11T02:54:06.969Z,99550.31
2018-12-11T02:56:35.653Z,99550.81
2018-12-11T02:59:04.726Z,99542.86
2018-12-11T03:01:33.863Z,99551.61
2018-12-11T03:04:02.743Z,99543.41
2018-12-11T03:06:31.311Z,99546.48
2018-12-11T03:09:00.958Z,99551.35
2018-12-11T03:11:29.437Z,99544.19
2018-12-11T03:13:58.263Z,99548.22
2018-12-11T03:16:26.704Z,99547.30
2018-12-11T03:18:55.125Z,99540.36
2018-12-11T03:21:23.588Z,99536.49
2018-12-11T03:23:52.023Z,99540.77
2018-12-11T03:26:20.822Z,99541.13
2018-12-11T03:28:50.422Z,99537.30
2018-12-11T03:31:18.876Z,99537.25
2018-12-11T03:33:47.303Z,99535.36
2018-12-11T03:36:16.125Z,99547.39
2018-12-11T03:38:45.892Z,99551.35
2018-12-11T03:41:14.355Z,99542.29
2018-12-11T03:43:43.118Z,99546.66
2018-12-11T03:46:11.582Z,99541.44
2018-12-11T03:48:40.024Z,99533.28
2018-12-11T03:51:09.111Z,99534.19
2018-12-11T03:53:37.552Z,99532.57
2018-12-11T03:56:06.495Z,99532.17
2018-12-11T03:58:37.078Z,99532.52
2018-12-11T04:01:05.551Z,99532.57
2018-12-11T04:03:33.989Z,99528.73
2018-12-11T04:06:03.169Z,99536.13
2018-12-11T04:08:31.631Z,99520.85
2018-12-11T04:11:00.094Z,99528.60
2018-12-11T04:13:28.530Z,99524.69
2018-12-11T04:15:56.951Z,99530.05
2018-12-11T04:18:25.416Z,99540.60
2018-12-11T04:20:53.879Z,99533.61
2018-12-11T04:23:22.729Z,99537.71
2018-12-11T04:25:51.521Z,99535.20
2018-12-11T04:28:20.306Z,99536.77
2018-12-11T04:30:48.734Z,99528.70
2018-12-11T04:33:17.977Z,99539.06
2018-12-11T04:35:47.258Z,99531.89
2018-12-11T04:38:15.930Z,99534.42
2018-12-11T04:40:44.351Z,99537.44
2018-12-11T04:43:13.873Z,99539.16
2018-12-11T04:45:43.043Z,99527.97
2018-12-11T04:48:11.490Z,99533.47
2018-12-11T04:50:40.432Z,99530.35
2018-12-11T04:53:09.843Z,99527.65
2018-12-11T04:55:38.506Z,99527.88
2018-12-11T04:58:07.893Z,99532.30
2018-12-11T05:00:36.894Z,99531.84
2018-12-11T05:03:05.404Z,99537.98
2018-12-11T05:05:34.112Z,99533.20
2018-12-11T05:08:05.043Z,99532.94
2018-12-11T05:10:33.465Z,99531.05
2018-12-11T05:13:01.935Z,99533.34
2018-12-11T05:15:30.736Z,99532.08
2018-12-11T05:18:00.193Z,99538.79
2018-12-11T05:20:28.647Z,99536.84
2018-12-11T05:22:58.009Z,99540.27
2018-12-11T05:25:26.779Z,99548.56
2018-12-11T05:27:55.545Z,99538.06
2018-12-11T05:30:23.998Z,99540.99
2018-12-11T05:32:53.542Z,99537.33
2018-12-11T05:35:22.767Z,99537.28
2018-12-11T05:37:51.202Z,99534.31
2018-12-11T05:40:19.642Z,99524.84
2018-12-11T05:42:48.590Z,99531.88
2018-12-11T05:45:17.038Z,99533.99
2018-12-11T05:47:45.465Z,99538.81
2018-12-11T05:50:13.910Z,99554.83
2018-12-11T05:52:42.775Z,99537.56
2018-12-11T05:55:11.227Z,99547.12
2018-12-11T05:57:40.681Z,99539.59
2018-12-11T06:00:10.555Z,99548.83
2018-12-11T06:02:38.992Z,99539.67
2018-12-11T06:05:09.229Z,99540.84
2018-12-11T06:07:38.103Z,99549.45
2018-12-11T06:10:08.190Z,99559.73
2018-12-11T06:12:36.870Z,99565.37
2018-12-11T06:15:06.090Z,99562.19
2018-12-11T06:17:35.125Z,99569.99
2018-12-11T06:20:03.795Z,99564.63
2018-12-11T06:22:32.435Z,99566.93
2018-12-11T06:25:02.040Z,99566.16
2018-12-11T06:27:30.641Z,99554.44
2018-12-11T06:29:59.514Z,99561.38
2018-12-11T06:32:27.970Z,99561.94
2018-12-11T06:34:56.425Z,99555.73
2018-12-11T06:37:25.762Z,99553.30
2018-12-11T06:39:54.820Z,99551.86
2018-12-11T06:42:24.274Z,99551.67
2018-12-11T06:44:52.695Z,99551.18
2018-12-11T06:47:21.157Z,99548.22
2018-12-11T06:49:49.981Z,99552.18
2018-12-11T06:52:18.439Z,99552.45
2018-12-11T06:54:50.071Z,99551.55
2018-12-11T06:57:18.522Z,99554.06
2018-12-11T06:59:47.954Z,99554.92
2018-12-11T07:02:16.794Z,99559.88
2018-12-11T07:04:45.480Z,99562.81
2018-12-11T07:07:13.958Z,99568.54
2018-12-11T07:09:42.388Z,99565.20
2018-12-11T07:12:10.822Z,99564.34
2018-12-11T07:14:39.640Z,99562.95
2018-12-11T07:17:09.313Z,99562.17
2018-12-11T07:19:37.717Z,99557.72
2018-12-11T07:22:06.246Z,99562.72
2018-12-11T07:24:36.239Z,99558.48
2018-12-11T07:27:04.737Z,99561.55
2018-12-11T07:29:44.362Z,99561.64
2018-12-11T07:32:21.750Z,99561.51
2018-12-11T07:34:54.644Z,99564.03
2018-12-11T07:37:27.380Z,99571.52
2018-12-11T07:40:13.050Z,99577.70
2018-12-11T07:42:47.016Z,99577.20
2018-12-11T07:45:28.941Z,99579.72
2018-12-11T07:48:08.930Z,99591.81
2018-12-11T07:51:01.832Z,99595.90
2018-12-11T07:53:31.348Z,99598.12
2018-12-11T07:56:00.524Z,99594.20
2018-12-11T07:58:48.812Z,99595.95
2018-12-11T08:01:20.221Z,99595.14
2018-12-11T08:03:54.051Z,99586.30
2018-12-11T08:06:42.001Z,99585.54
2018-12-11T08:09:15.428Z,99590.90
2018-12-11T08:11:59.327Z,99597.71
2018-12-11T08:14:30.706Z,99590.55
2018-12-11T08:16:59.262Z,99595.23
2018-12-11T08:19:29.333Z,99602.09
2018-12-11T08:22:02.614Z,99603.53
2018-12-11T08:24:37.376Z,99606.45
2018-12-11T08:27:06.169Z,99602.98
2018-12-11T08:29:40.012Z,99610.33
2018-12-11T08:32:09.444Z,99607.63
2018-12-11T08:34:45.500Z,99606.41
2018-12-11T08:37:15.588Z,99601.86
2018-12-11T08:39:45.130Z,99603.13
2018-12-11T08:42:13.559Z,99609.25
2018-12-11T08:44:42.379Z,99611.00
2018-12-11T08:47:19.911Z,99617.58
2018-12-11T08:49:52.791Z,99622.39
2018-12-11T08:52:31.477Z,99619.20
2018-12-11T08:55:01.372Z,99613.20
2018-12-11T08:57:41.795Z,99614.25
2018-12-11T09:00:16.067Z,99609.73
2018-12-11T09:02:48.532Z,99621.63
2018-12-11T09:05:33.738Z,99615.62
2018-12-11T09:08:02.452Z,99614.22
2018-12-11T09:10:35.773Z,99609.28
2018-12-11T09:13:04.564Z,99615.81
2018-12-11T09:15:36.553Z,99617.02
2018-12-11T09:18:05.032Z,99615.14
2018-12-11T09:23:20.051Z,99618.22
2018-12-11T09:25:49.788Z,99612.47
2018-12-11T09:28:18.288Z,99620.38
2018-12-11T09:30:46.779Z,99616.86
2018-12-11T09:33:19.352Z,99621.64
2018-12-11T09:35:49.055Z,99626.13
2018-12-11T09:38:17.818Z,99626.03
2018-12-11T09:40:54.582Z,99624.45
2018-12-11T09:43:23.818Z,99626.92
2018-12-11T09:45:59.314Z,99628.88
2018-12-11T09:48:30.872Z,99624.91
2018-12-11T09:51:05.381Z,99635.20
2018-12-11T09:53:37.326Z,99642.84
2018-12-11T09:56:07.082Z,99634.22
2018-12-11T09:58:36.335Z,99634.22
2018-12-11T10:01:07.327Z,99633.44
2018-12-11T10:03:37.860Z,99627.36
2018-12-11T10:06:08.974Z,99631.89
2018-12-11T10:08:38.155Z,99631.55
2018-12-11T10:11:11.498Z,99633.78
2018-12-11T10:13:44.561Z,99637.03
2018-12-11T10:16:14.205Z,99626.72
2018-12-11T10:18:43.249Z,99626.77
2018-12-11T10:21:11.735Z,99617.88
2018-12-11T10:23:40.713Z,99623.58
2018-12-11T10:26:09.162Z,99624.70
2018-12-11T10:28:37.584Z,99619.69
2018-12-11T10:31:06.353Z,99626.01
2018-12-11T10:33:35.893Z,99621.84
2018-12-11T10:36:04.455Z,99619.66
2018-12-11T10:38:38.420Z,99614.70
2018-12-11T10:41:26.196Z,99616.64
2018-12-11T10:44:02.860Z,99618.52
2018-12-11T10:46:33.895Z,99622.41
2018-12-11T10:49:03.481Z,99623.20
2018-12-11T10:51:56.047Z,99627.47
2018-12-11T10:54:51.753Z,99619.42
2018-12-11T10:57:24.375Z,99609.55
2018-12-11T10:59:53.060Z,99619.15
2018-12-11T11:02:30.159Z,99615.11
2018-12-11T11:04:58.969Z,99620.06
2018-12-11T11:07:29.699Z,99615.48
2018-12-11T11:09:58.513Z,99615.45
2018-12-11T11:12:34.061Z,99614.47
2018-12-11T11:15:05.852Z,99611.45
2018-12-11T11:17:35.882Z,99614.71
2018-12-11T11:20:06.338Z,99614.33
2018-12-11T11:23:01.693Z,99606.49
2018-12-11T11:25:40.224Z,99613.95
2018-12-11T11:28:11.778Z,99612.00
2018-12-11T11:31:04.841Z,99614.35
2018-12-11T11:33:56.409Z,99612.52
2018-12-11T11:36:46.477Z,99611.53
2018-12-11T11:39:19.126Z,99606.35
2018-12-11T11:42:05.971Z,99614.92
2018-12-11T11:44:40.412Z,99611.39
2018-12-11T11:47:10.156Z,99605.75
2018-12-11T11:49:41.081Z,99602.67
2018-12-11T11:52:13.579Z,99609.95
2018-12-11T11:54:45.099Z,99611.91
2018-12-11T11:57:13.606Z,99607.47
2018-12-11T12:00:04.839Z,99610.55
2018-12-11T12:02:47.038Z,99608.95
2018-12-11T12:05:21.584Z,99611.36
2018-12-11T12:07:50.160Z,99612.44
2018-12-11T12:10:43.059Z,99611.24
2018-12-11T12:13:32.960Z,99612.28
2018-12-11T12:16:04.481Z,99605.20
2018-12-11T12:18:40.282Z,99611.16
2018-12-11T12:21:08.770Z,99609.65
2018-12-11T12:23:38.638Z,99611.49
2018-12-11T12:26:08.238Z,99616.06
2018-12-11T12:28:36.688Z,99619.46
2018-12-11T12:31:05.609Z,99612.30
2018-12-11T12:33:38.834Z,99610.41
2018-12-11T12:36:11.392Z,99607.05
2018-12-11T12:38:45.245Z,99607.79
2018-12-11T12:41:15.793Z,99603.14
2018-12-11T12:43:44.423Z,99606.97
2018-12-11T12:46:13.782Z,99596.55
2018-12-11T12:48:48.837Z,99596.20
2018-12-11T12:51:17.721Z,99604.40
2018-12-11T12:53:50.423Z,99604.02
2018-12-11T12:56:21.159Z,99601.00
2018-12-11T12:58:52.709Z,99599.56
2018-12-11T13:01:25.269Z,99597.54
2018-12-11T13:03:55.220Z,99600.11
2018-12-11T13:06:25.677Z,99602.86
2018-12-11T13:08:55.321Z,99605.16
2018-12-11T13:11:23.775Z,99598.64
2018-12-11T13:13:52.223Z,99592.94
2018-12-11T13:16:21.645Z,99593.48
2018-12-11T13:18:50.512Z,99595.25
2018-12-11T13:21:19.248Z,99593.33
2018-12-11T13:23:48.350Z,99596.83
2018-12-11T13:26:16.810Z,99604.84
2018-12-11T13:28:45.246Z,99612.58
2018-12-11T13:31:13.690Z,99610.09
2018-12-11T13:33:42.490Z,99601.47
2018-12-11T13:36:11.877Z,99608.38
2018-12-11T13:38:40.305Z,99613.13
2018-12-11T13:41:08.978Z,99612.89
2018-12-11T13:43:37.528Z,99613.37
2018-12-11T13:46:05.996Z,99618.80
2018-12-11T13:48:35.005Z,99608.56
2018-12-11T13:51:04.715Z,99614.84
2018-12-11T13:53:34.056Z,99614.36
2018-12-11T13:56:02.711Z,99614.92
2018-12-11T13:58:31.401Z,99611.75
2018-12-11T14:00:59.959Z,99622.23
2018-12-11T14:03:28.874Z,99617.86
2018-12-11T14:05:57.289Z,99619.75
2018-12-11T14:08:26.710Z,99618.03
2018-12-11T14:10:55.150Z,99620.70
2018-12-11T14:13:23.590Z,99612.37
2018-12-11T14:15:52.492Z,99616.12
2018-12-11T14:18:21.178Z,99615.89
2018-12-11T14:20:50.537Z,99618.98
2018-12-11T14:26:03.308Z,99622.47
2018-12-11T14:28:32.013Z,99619.66
2018-12-11T14:31:01.230Z,99619.55
2018-12-11T14:33:38.336Z,99613.97
2018-12-11T14:36:07.287Z,99618.53
2018-12-11T14:38:38.430Z,99618.61
2018-12-11T14:41:06.907Z,99615.95
2018-12-11T14:43:37.237Z,99615.34
2018-12-11T14:46:07.331Z,99615.68
2018-12-11T14:48:39.421Z,99612.38
2018-12-11T14:51:08.227Z,99608.52
2018-12-11T14:53:37.527Z,99611.14
2018-12-11T14:56:07.716Z,99615.94
2018-12-11T14:58:36.200Z,99613.97
2018-12-11T15:01:05.235Z,99613.27
2018-12-11T15:03:34.705Z,99610.73
2018-12-11T15:06:07.450Z,99609.58
2018-12-11T15:08:36.752Z,99610.11
2018-12-11T15:11:05.889Z,99615.47
2018-12-11T15:13:35.752Z,99610.92
2018-12-11T15:16:06.022Z,99616.22
2018-12-11T15:18:35.864Z,99617.59
2018-12-11T15:21:04.356Z,99617.48
2018-12-11T15:23:33.819Z,99616.52
2018-12-11T15:26:02.905Z,99615.09
2018-12-11T15:28:32.127Z,99614.23
2018-12-11T15:31:10.977Z,99611.67
2018-12-11T15:33:42.491Z,99610.47
2018-12-11T15:36:10.961Z,99614.05
2018-12-11T15:38:39.664Z,99603.23
2018-12-11T15:41:08.507Z,99614.08
2018-12-11T15:43:40.918Z,99612.58
2018-12-11T15:46:09.362Z,99613.83
2018-12-11T15:48:38.241Z,99621.75
2018-12-11T15:51:07.709Z,99616.30
2018-12-11T15:53:36.568Z,99618.73
2018-12-11T15:56:05.454Z,99621.30
2018-12-11T15:58:35.368Z,99617.32
2018-12-11T16:01:04.193Z,99617.94
2018-12-11T16:03:32.646Z,99622.95
2018-12-11T16:06:01.379Z,99622.31
2018-12-11T16:08:30.256Z,99624.71
2018-12-11T16:10:59.050Z,99629.38
2018-12-11T16:13:27.481Z,99626.25
2018-12-11T16:15:55.910Z,99621.97
2018-12-11T16:18:25.718Z,99635.06
2018-12-11T16:20:54.218Z,99633.00
2018-12-11T16:23:22.653Z,99637.64
2018-12-11T16:25:51.215Z,99632.09
2018-12-11T16:28:20.392Z,99635.52
2018-12-11T16:30:48.838Z,99632.22
2018-12-11T16:33:17.514Z,99633.47
2018-12-11T16:35:45.976Z,99626.31
2018-12-11T16:38:15.684Z,99632.12
2018-12-11T16:40:44.187Z,99631.44
2018-12-11T16:43:13.050Z,99628.20
2018-12-11T16:45:42.446Z,99631.22
2018-12-11T16:48:11.285Z,99638.94
2018-12-11T16:50:41.403Z,99635.51
2018-12-11T16:53:10.315Z,99643.72
2018-12-11T16:55:42.402Z,99651.17
2018-12-11T16:58:12.782Z,99652.03
2018-12-11T17:00:42.926Z,99648.77
2018-12-11T17:03:13.823Z,99651.39
2018-12-11T17:05:48.413Z,99657.83
2018-12-11T17:08:22.049Z,99655.20
2018-12-11T17:10:54.933Z,99662.20
2018-12-11T17:13:23.875Z,99663.97
2018-12-11T17:15:53.258Z,99659.19
2018-12-11T17:18:22.067Z,99671.38
2018-12-11T17:20:50.832Z,99666.89
2018-12-11T17:23:19.558Z,99678.63
2018-12-11T17:25:48.259Z,99675.45
2018-12-11T17:28:17.853Z,99681.20
2018-12-11T17:30:55.424Z,99689.05
2018-12-11T17:33:24.431Z,99684.28
2018-12-11T17:35:53.329Z,99690.63
2018-12-11T17:38:29.290Z,99691.62
2018-12-11T17:40:59.149Z,99690.67
2018-12-11T17:43:32.522Z,99695.41
2018-12-11T17:46:01.456Z,99697.22
2018-12-11T17:48:31.630Z,99695.41
2018-12-11T17:51:02.019Z,99695.86
2018-12-11T17:53:31.746Z,99703.41
2018-12-11T17:56:01.308Z,99700.65
2018-12-11T17:58:31.262Z,99700.15
2018-12-11T18:00:59.960Z,99693.19
2018-12-11T18:03:28.413Z,99702.36
2018-12-11T18:05:56.911Z,99700.99
2018-12-11T18:08:26.082Z,99697.27
2018-12-11T18:10:55.623Z,99694.65
2018-12-11T18:13:24.694Z,99688.45
2018-12-11T18:15:54.037Z,99687.29
2018-12-11T18:18:25.867Z,99681.66
2018-12-11T18:20:54.986Z,99688.00
2018-12-11T18:23:23.851Z,99698.42
2018-12-11T18:25:52.295Z,99693.75
2018-12-11T18:28:26.254Z,99693.05
2018-12-11T18:30:56.251Z,99687.95
2018-12-11T18:33:25.811Z,99695.71
2018-12-11T18:35:54.433Z,99688.45
2018-12-11T18:38:31.542Z,99693.55
2018-12-11T18:41:04.690Z,99702.30
2018-12-11T18:43:33.238Z,99699.19
2018-12-11T18:46:02.878Z,99694.85
2018-12-11T18:48:31.807Z,99680.20
2018-12-11T18:51:04.030Z,99681.20
2018-12-11T18:53:32.833Z,99686.23
2018-12-11T18:56:01.245Z,99697.00
2018-12-11T18:58:34.328Z,99696.81
2018-12-11T19:01:00.747Z,99696.95
2018-12-11T19:03:30.486Z,99697.86
2018-12-11T19:05:59.443Z,99703.25
2018-12-11T19:08:30.982Z,99703.30
2018-12-11T19:11:00.572Z,99698.88
2018-12-11T19:13:34.677Z,99700.11
2018-12-11T19:16:04.815Z,99700.42
2018-12-11T19:18:36.010Z,99696.13
2018-12-11T19:21:08.120Z,99696.09
2018-12-11T19:23:50.059Z,99691.17
2018-12-11T19:26:23.614Z,99699.56
2018-12-11T19:29:03.329Z,99695.28
2018-12-11T19:31:34.673Z,99694.22
2018-12-11T19:34:04.584Z,99695.95
2018-12-11T19:36:35.043Z,99691.56
2018-12-11T19:39:10.073Z,99691.56
2018-12-11T19:41:43.324Z,99691.11
2018-12-11T19:44:12.073Z,99696.34
2018-12-11T19:46:40.782Z,99692.47
2018-12-11T19:49:09.406Z,99690.52
2018-12-11T19:51:38.272Z,99693.63
2018-12-11T19:54:06.770Z,99687.49
2018-12-11T19:56:35.424Z,99682.09
2018-12-11T19:59:04.587Z,99683.50
2018-12-11T20:01:35.527Z,99679.56
2018-12-11T20:04:05.771Z,99685.12
2018-12-11T20:06:34.349Z,99686.06
2018-12-11T20:09:05.171Z,99683.31
2018-12-11T20:11:34.150Z,99679.61
2018-12-11T20:14:04.463Z,99686.91
2018-12-11T20:16:33.626Z,99686.86
2018-12-11T20:19:02.066Z,99680.75
2018-12-11T20:21:33.644Z,99679.77
2018-12-11T20:24:08.662Z,99684.19
2018-12-11T20:26:39.554Z,99682.78
2018-12-11T20:29:08.792Z,99682.38
2018-12-11T20:31:42.908Z,99689.07
2018-12-11T20:34:11.910Z,99683.52
2018-12-11T20:36:45.906Z,99690.23
2018-12-11T20:39:15.458Z,99695.83
2018-12-11T20:41:44.456Z,99696.49
2018-12-11T20:44:13.968Z,99696.45
2018-12-11T20:46:42.462Z,99697.14
2018-12-11T20:49:11.299Z,99703.19
2018-12-11T20:51:41.234Z,99697.59
2018-12-11T20:54:12.250Z,99700.32
2018-12-11T20:56:40.916Z,99699.82
2018-12-11T20:59:09.362Z,99702.14
2018-12-11T21:01:37.936Z,99705.42
2018-12-11T21:04:09.471Z,99700.63
2018-12-11T21:06:38.698Z,99698.47
2018-12-11T21:09:13.956Z,99701.89
2018-12-11T21:11:45.000Z,99699.98
2018-12-11T21:14:14.160Z,99704.02
2018-12-11T21:16:43.000Z,99705.33
2018-12-11T21:19:11.687Z,99704.52
2018-12-11T21:21:40.838Z,99704.97
2018-12-11T21:24:10.801Z,99705.47
2018-12-11T21:26:39.276Z,99707.04
2018-12-11T21:29:08.891Z,99709.30
2018-12-11T21:31:37.367Z,99712.87
2018-12-11T21:34:06.298Z,99712.51
2018-12-11T21:36:35.998Z,99701.03
2018-12-11T21:39:07.535Z,99705.02
2018-12-11T21:41:36.223Z,99710.56
2018-12-11T21:44:04.725Z,99710.16
2018-12-11T21:46:33.169Z,99706.81
2018-12-11T21:49:01.634Z,99705.55
2018-12-11T21:51:30.209Z,99713.86
2018-12-11T21:53:58.703Z,99714.73
2018-12-11T21:56:27.140Z,99716.13
2018-12-11T21:58:56.812Z,99721.09
2018-12-11T22:01:25.250Z,99719.37
2018-12-11T22:03:54.492Z,99720.59
2018-12-11T22:06:23.150Z,99713.34
2018-12-11T22:08:51.986Z,99705.03
2018-12-11T22:11:20.743Z,99715.00
2018-12-11T22:13:50.005Z,99712.37
2018-12-11T22:16:18.552Z,99716.82
2018-12-11T22:18:47.035Z,99715.45
2018-12-11T22:21:18.490Z,99712.28
2018-12-11T22:23:46.954Z,99716.56
2018-12-11T22:26:15.400Z,99716.22
2018-12-11T22:28:43.846Z,99711.97
2018-12-11T22:31:12.307Z,99715.20
2018-12-11T22:33:41.581Z,99714.75
2018-12-11T22:36:10.060Z,99721.20
2018-12-11T22:38:38.507Z,99721.02
2018-12-11T22:41:08.810Z,99716.10
2018-12-11T22:43:37.490Z,99721.13
2018-12-11T22:46:06.059Z,99717.66
2018-12-11T22:48:35.945Z,99718.03
2018-12-11T22:51:06.048Z,99716.58
2018-12-11T22:53:34.717Z,99709.72
2018-12-11T22:56:03.398Z,99701.52
2018-12-11T22:58:31.855Z,99698.58
2018-12-11T23:01:00.627Z,99701.93
2018-12-11T23:03:29.503Z,99710.14
2018-12-11T23:05:57.959Z,99709.91
2018-12-11T23:08:26.646Z,99712.58
2018-12-11T23:10:55.113Z,99722.20
2018-12-11T23:13:23.710Z,99719.29
2018-12-11T23:15:52.155Z,99724.57
2018-12-11T23:18:21.481Z,99718.88
2018-12-11T23:20:50.578Z,99723.32
2018-12-11T23:23:19.518Z,99724.94
2018-12-11T23:25:47.986Z,99724.44
2018-12-11T23:28:16.560Z,99723.72
2018-12-11T23:30:45.054Z,99719.03
2018-12-11T23:33:14.083Z,99723.58
2018-12-11T23:35:42.789Z,99721.50
2018-12-11T23:38:12.028Z,99728.96
2018-12-11T23:40:40.841Z,99720.15
2018-12-11T23:43:10.354Z,99721.77
2018-12-11T23:45:39.215Z,99726.80
2018-12-11T23:48:08.074Z,99735.41
2018-12-11T23:50:36.751Z,99729.38
2018-12-11T23:53:06.240Z,99734.46
2018-12-11T23:55:36.164Z,99737.08
2018-12-11T23:58:06.262Z,99731.75
